sensor_id;sensor_type;location;lat;lon;timestamp;P1;durP1;ratioP1;P2;durP2;ratioP2
63444;SDS011;49573;47.682;9.170;2024-02-04T00:02:40;8.20;;;4.78;;
63444;SDS011;49573;47.682;9.170;2024-02-04T00:05:26;7.32;;;5.00;;
63444;SDS011;49573;47.682;9.170;2024-02-04T00:08:13;6.72;;;4.50;;
63444;SDS011;49573;47.682;9.170;2024-02-04T00:11:02;6.80;;;4.90;;
63444;SDS011;49573;47.682;9.170;2024-02-04T00:13:50;8.20;;;5.35;;
63444;SDS011;49573;47.682;9.170;2024-02-04T00:16:36;7.70;;;5.05;;
63444;SDS011;49573;47.682;9.170;2024-02-04T00:19:23;7.88;;;4.85;;
63444;SDS011;49573;47.682;9.170;2024-02-04T00:22:09;8.27;;;5.10;;
63444;SDS011;49573;47.682;9.170;2024-02-04T00:24:55;7.18;;;4.95;;
63444;SDS011;49573;47.682;9.170;2024-02-04T00:27:46;7.45;;;4.78;;
63444;SDS011;49573;47.682;9.170;2024-02-04T00:30:32;7.20;;;4.80;;
63444;SDS011;49573;47.682;9.170;2024-02-04T00:33:18;7.07;;;5.00;;
63444;SDS011;49573;47.682;9.170;2024-02-04T00:36:06;8.15;;;5.13;;
63444;SDS011;49573;47.682;9.170;2024-02-04T00:38:52;6.68;;;4.35;;
63444;SDS011;49573;47.682;9.170;2024-02-04T00:41:38;8.75;;;5.40;;
63444;SDS011;49573;47.682;9.170;2024-02-04T00:44:24;8.63;;;5.32;;
63444;SDS011;49573;47.682;9.170;2024-02-04T00:47:10;6.80;;;4.85;;
63444;SDS011;49573;47.682;9.170;2024-02-04T00:49:58;8.20;;;5.50;;
63444;SDS011;49573;47.682;9.170;2024-02-04T00:52:46;9.07;;;5.78;;
63444;SDS011;49573;47.682;9.170;2024-02-04T00:55:32;8.05;;;5.07;;
63444;SDS011;49573;47.682;9.170;2024-02-04T00:58:18;8.57;;;5.18;;
63444;SDS011;49573;47.682;9.170;2024-02-04T01:01:04;7.55;;;4.95;;
63444;SDS011;49573;47.682;9.170;2024-02-04T01:03:50;9.95;;;5.65;;
63444;SDS011;49573;47.682;9.170;2024-02-04T01:06:37;9.13;;;5.43;;
63444;SDS011;49573;47.682;9.170;2024-02-04T01:09:24;8.82;;;5.75;;
63444;SDS011;49573;47.682;9.170;2024-02-04T01:12:10;9.75;;;5.80;;
63444;SDS011;49573;47.682;9.170;2024-02-04T01:14:56;11.15;;;6.10;;
63444;SDS011;49573;47.682;9.170;2024-02-04T01:17:42;9.80;;;5.78;;
63444;SDS011;49573;47.682;9.170;2024-02-04T01:20:28;9.38;;;5.20;;
63444;SDS011;49573;47.682;9.170;2024-02-04T01:23:14;8.60;;;5.60;;
63444;SDS011;49573;47.682;9.170;2024-02-04T01:26:04;8.63;;;5.22;;
63444;SDS011;49573;47.682;9.170;2024-02-04T01:28:50;8.63;;;5.75;;
63444;SDS011;49573;47.682;9.170;2024-02-04T01:31:36;6.72;;;4.88;;
63444;SDS011;49573;47.682;9.170;2024-02-04T01:34:22;7.25;;;4.93;;
63444;SDS011;49573;47.682;9.170;2024-02-04T01:37:08;6.88;;;4.63;;
63444;SDS011;49573;47.682;9.170;2024-02-04T01:39:54;9.07;;;5.65;;
63444;SDS011;49573;47.682;9.170;2024-02-04T01:42:42;8.13;;;5.55;;
63444;SDS011;49573;47.682;9.170;2024-02-04T01:45:28;8.00;;;5.35;;
63444;SDS011;49573;47.682;9.170;2024-02-04T01:48:14;10.32;;;5.88;;
63444;SDS011;49573;47.682;9.170;2024-02-04T01:51:01;8.63;;;5.68;;
63444;SDS011;49573;47.682;9.170;2024-02-04T01:53:48;9.30;;;5.68;;
63444;SDS011;49573;47.682;9.170;2024-02-04T01:56:35;7.75;;;5.07;;
63444;SDS011;49573;47.682;9.170;2024-02-04T01:59:23;8.80;;;5.20;;
63444;SDS011;49573;47.682;9.170;2024-02-04T02:02:15;9.30;;;5.30;;
63444;SDS011;49573;47.682;9.170;2024-02-04T02:05:01;9.85;;;5.18;;
63444;SDS011;49573;47.682;9.170;2024-02-04T02:07:47;7.47;;;4.95;;
63444;SDS011;49573;47.682;9.170;2024-02-04T02:10:36;9.73;;;5.07;;
63444;SDS011;49573;47.682;9.170;2024-02-04T02:13:23;6.32;;;4.07;;
63444;SDS011;49573;47.682;9.170;2024-02-04T02:16:14;5.95;;;4.05;;
63444;SDS011;49573;47.682;9.170;2024-02-04T02:19:09;6.47;;;4.22;;
63444;SDS011;49573;47.682;9.170;2024-02-04T02:22:10;9.05;;;3.63;;
63444;SDS011;49573;47.682;9.170;2024-02-04T02:25:08;7.70;;;4.30;;
63444;SDS011;49573;47.682;9.170;2024-02-04T02:27:56;6.82;;;4.22;;
63444;SDS011;49573;47.682;9.170;2024-02-04T02:30:42;7.20;;;4.30;;
63444;SDS011;49573;47.682;9.170;2024-02-04T02:33:28;6.70;;;4.38;;
63444;SDS011;49573;47.682;9.170;2024-02-04T02:36:15;6.22;;;4.45;;
63444;SDS011;49573;47.682;9.170;2024-02-04T02:39:08;6.60;;;4.03;;
63444;SDS011;49573;47.682;9.170;2024-02-04T02:42:01;4.82;;;3.13;;
63444;SDS011;49573;47.682;9.170;2024-02-04T02:44:50;5.28;;;3.28;;
63444;SDS011;49573;47.682;9.170;2024-02-04T02:47:38;4.65;;;2.85;;
63444;SDS011;49573;47.682;9.170;2024-02-04T02:50:26;4.30;;;2.67;;
63444;SDS011;49573;47.682;9.170;2024-02-04T02:53:12;4.35;;;2.75;;
63444;SDS011;49573;47.682;9.170;2024-02-04T02:55:59;4.15;;;2.83;;
63444;SDS011;49573;47.682;9.170;2024-02-04T02:58:46;5.35;;;3.08;;
63444;SDS011;49573;47.682;9.170;2024-02-04T03:01:32;5.82;;;3.30;;
63444;SDS011;49573;47.682;9.170;2024-02-04T03:04:18;4.22;;;2.90;;
63444;SDS011;49573;47.682;9.170;2024-02-04T03:07:04;4.78;;;2.97;;
63444;SDS011;49573;47.682;9.170;2024-02-04T03:09:53;6.95;;;3.88;;
63444;SDS011;49573;47.682;9.170;2024-02-04T03:12:40;5.65;;;3.80;;
63444;SDS011;49573;47.682;9.170;2024-02-04T03:15:27;5.13;;;3.42;;
63444;SDS011;49573;47.682;9.170;2024-02-04T03:18:13;5.90;;;3.40;;
63444;SDS011;49573;47.682;9.170;2024-02-04T03:20:59;4.90;;;3.30;;
63444;SDS011;49573;47.682;9.170;2024-02-04T03:23:45;5.05;;;3.15;;
63444;SDS011;49573;47.682;9.170;2024-02-04T03:26:31;5.85;;;3.30;;
63444;SDS011;49573;47.682;9.170;2024-02-04T03:29:17;7.00;;;2.92;;
63444;SDS011;49573;47.682;9.170;2024-02-04T03:32:05;4.82;;;3.10;;
63444;SDS011;49573;47.682;9.170;2024-02-04T03:34:51;5.13;;;3.25;;
63444;SDS011;49573;47.682;9.170;2024-02-04T03:37:37;4.93;;;3.42;;
63444;SDS011;49573;47.682;9.170;2024-02-04T03:40:23;4.05;;;2.85;;
63444;SDS011;49573;47.682;9.170;2024-02-04T03:43:10;5.30;;;3.20;;
63444;SDS011;49573;47.682;9.170;2024-02-04T03:45:56;5.57;;;3.35;;
63444;SDS011;49573;47.682;9.170;2024-02-04T03:48:43;4.40;;;3.00;;
63444;SDS011;49573;47.682;9.170;2024-02-04T03:51:29;4.90;;;3.08;;
63444;SDS011;49573;47.682;9.170;2024-02-04T03:54:15;5.05;;;2.85;;
63444;SDS011;49573;47.682;9.170;2024-02-04T03:57:01;4.47;;;3.00;;
63444;SDS011;49573;47.682;9.170;2024-02-04T03:59:48;4.07;;;2.77;;
63444;SDS011;49573;47.682;9.170;2024-02-04T04:02:34;5.30;;;3.28;;
63444;SDS011;49573;47.682;9.170;2024-02-04T04:05:21;5.35;;;3.10;;
63444;SDS011;49573;47.682;9.170;2024-02-04T04:08:07;4.88;;;3.30;;
63444;SDS011;49573;47.682;9.170;2024-02-04T04:10:54;6.15;;;3.05;;
63444;SDS011;49573;47.682;9.170;2024-02-04T04:13:40;4.40;;;3.10;;
63444;SDS011;49573;47.682;9.170;2024-02-04T04:16:26;5.55;;;2.92;;
63444;SDS011;49573;47.682;9.170;2024-02-04T04:19:12;4.90;;;2.90;;
63444;SDS011;49573;47.682;9.170;2024-02-04T04:21:59;5.53;;;3.40;;
63444;SDS011;49573;47.682;9.170;2024-02-04T04:24:46;5.25;;;3.35;;
63444;SDS011;49573;47.682;9.170;2024-02-04T04:27:32;5.07;;;3.42;;
63444;SDS011;49573;47.682;9.170;2024-02-04T04:30:18;6.25;;;3.20;;
63444;SDS011;49573;47.682;9.170;2024-02-04T04:33:04;4.75;;;2.92;;
63444;SDS011;49573;47.682;9.170;2024-02-04T04:35:51;4.88;;;2.60;;
63444;SDS011;49573;47.682;9.170;2024-02-04T04:38:39;3.72;;;2.50;;
63444;SDS011;49573;47.682;9.170;2024-02-04T04:41:25;4.22;;;2.15;;
63444;SDS011;49573;47.682;9.170;2024-02-04T04:44:11;3.30;;;2.30;;
63444;SDS011;49573;47.682;9.170;2024-02-04T04:46:57;1.98;;;1.63;;
63444;SDS011;49573;47.682;9.170;2024-02-04T04:49:43;3.10;;;1.65;;
63444;SDS011;49573;47.682;9.170;2024-02-04T04:52:29;3.55;;;1.60;;
63444;SDS011;49573;47.682;9.170;2024-02-04T04:55:16;3.00;;;1.45;;
63444;SDS011;49573;47.682;9.170;2024-02-04T04:58:04;1.98;;;1.50;;
63444;SDS011;49573;47.682;9.170;2024-02-04T05:00:50;2.53;;;1.70;;
63444;SDS011;49573;47.682;9.170;2024-02-04T05:03:36;3.90;;;1.65;;
63444;SDS011;49573;47.682;9.170;2024-02-04T05:06:22;3.20;;;1.60;;
63444;SDS011;49573;47.682;9.170;2024-02-04T05:09:08;1.88;;;1.40;;
63444;SDS011;49573;47.682;9.170;2024-02-04T05:11:55;2.22;;;1.60;;
63444;SDS011;49573;47.682;9.170;2024-02-04T05:14:41;3.20;;;1.80;;
63444;SDS011;49573;47.682;9.170;2024-02-04T05:17:27;5.72;;;1.80;;
63444;SDS011;49573;47.682;9.170;2024-02-04T05:20:13;2.38;;;1.48;;
63444;SDS011;49573;47.682;9.170;2024-02-04T05:22:59;2.55;;;1.55;;
63444;SDS011;49573;47.682;9.170;2024-02-04T05:25:45;2.13;;;1.45;;
63444;SDS011;49573;47.682;9.170;2024-02-04T05:28:33;1.55;;;1.33;;
63444;SDS011;49573;47.682;9.170;2024-02-04T05:31:19;2.33;;;1.33;;
63444;SDS011;49573;47.682;9.170;2024-02-04T05:34:05;2.28;;;1.40;;
63444;SDS011;49573;47.682;9.170;2024-02-04T05:36:52;2.22;;;1.50;;
63444;SDS011;49573;47.682;9.170;2024-02-04T05:39:38;3.15;;;1.40;;
63444;SDS011;49573;47.682;9.170;2024-02-04T05:42:24;3.20;;;1.63;;
63444;SDS011;49573;47.682;9.170;2024-02-04T05:45:12;2.40;;;1.65;;
63444;SDS011;49573;47.682;9.170;2024-02-04T05:47:58;4.05;;;2.78;;
63444;SDS011;49573;47.682;9.170;2024-02-04T05:50:44;2.85;;;1.50;;
63444;SDS011;49573;47.682;9.170;2024-02-04T05:53:30;2.20;;;1.60;;
63444;SDS011;49573;47.682;9.170;2024-02-04T05:56:16;2.17;;;1.60;;
63444;SDS011;49573;47.682;9.170;2024-02-04T05:59:02;4.75;;;1.50;;
63444;SDS011;49573;47.682;9.170;2024-02-04T06:01:49;2.13;;;1.53;;
63444;SDS011;49573;47.682;9.170;2024-02-04T06:04:35;3.42;;;1.80;;
63444;SDS011;49573;47.682;9.170;2024-02-04T06:07:22;3.53;;;2.40;;
63444;SDS011;49573;47.682;9.170;2024-02-04T06:10:08;4.43;;;2.72;;
63444;SDS011;49573;47.682;9.170;2024-02-04T06:12:54;4.35;;;3.03;;
63444;SDS011;49573;47.682;9.170;2024-02-04T06:15:40;4.03;;;2.92;;
63444;SDS011;49573;47.682;9.170;2024-02-04T06:18:28;4.22;;;2.58;;
63444;SDS011;49573;47.682;9.170;2024-02-04T06:21:14;4.00;;;3.03;;
63444;SDS011;49573;47.682;9.170;2024-02-04T06:24:00;6.25;;;3.00;;
63444;SDS011;49573;47.682;9.170;2024-02-04T06:26:47;5.75;;;3.05;;
63444;SDS011;49573;47.682;9.170;2024-02-04T06:29:33;4.25;;;2.70;;
63444;SDS011;49573;47.682;9.170;2024-02-04T06:32:19;4.53;;;2.70;;
63444;SDS011;49573;47.682;9.170;2024-02-04T06:35:07;4.75;;;2.55;;
63444;SDS011;49573;47.682;9.170;2024-02-04T06:37:53;3.80;;;2.70;;
63444;SDS011;49573;47.682;9.170;2024-02-04T06:40:39;5.70;;;2.50;;
63444;SDS011;49573;47.682;9.170;2024-02-04T06:43:25;4.35;;;2.10;;
63444;SDS011;49573;47.682;9.170;2024-02-04T06:46:11;3.08;;;2.25;;
63444;SDS011;49573;47.682;9.170;2024-02-04T06:48:57;3.93;;;2.30;;
63444;SDS011;49573;47.682;9.170;2024-02-04T06:51:45;4.75;;;2.25;;
63444;SDS011;49573;47.682;9.170;2024-02-04T06:54:32;4.15;;;2.63;;
63444;SDS011;49573;47.682;9.170;2024-02-04T06:57:18;4.53;;;2.80;;
63444;SDS011;49573;47.682;9.170;2024-02-04T07:00:05;4.33;;;2.80;;
63444;SDS011;49573;47.682;9.170;2024-02-04T07:02:53;4.68;;;3.33;;
63444;SDS011;49573;47.682;9.170;2024-02-04T07:05:39;6.70;;;3.80;;
63444;SDS011;49573;47.682;9.170;2024-02-04T07:08:27;5.22;;;3.50;;
63444;SDS011;49573;47.682;9.170;2024-02-04T07:11:13;5.85;;;3.72;;
63444;SDS011;49573;47.682;9.170;2024-02-04T07:13:59;6.53;;;3.72;;
63444;SDS011;49573;47.682;9.170;2024-02-04T07:16:45;7.50;;;4.20;;
63444;SDS011;49573;47.682;9.170;2024-02-04T07:19:31;6.60;;;3.92;;
63444;SDS011;49573;47.682;9.170;2024-02-04T07:22:17;8.35;;;4.10;;
63444;SDS011;49573;47.682;9.170;2024-02-04T07:25:05;7.00;;;3.75;;
63444;SDS011;49573;47.682;9.170;2024-02-04T07:27:52;8.45;;;3.90;;
63444;SDS011;49573;47.682;9.170;2024-02-04T07:30:38;6.82;;;4.10;;
63444;SDS011;49573;47.682;9.170;2024-02-04T07:33:24;5.75;;;3.90;;
63444;SDS011;49573;47.682;9.170;2024-02-04T07:36:10;6.30;;;3.42;;
63444;SDS011;49573;47.682;9.170;2024-02-04T07:38:57;5.78;;;3.83;;
63444;SDS011;49573;47.682;9.170;2024-02-04T07:41:46;5.47;;;3.30;;
63444;SDS011;49573;47.682;9.170;2024-02-04T07:44:32;4.47;;;2.78;;
63444;SDS011;49573;47.682;9.170;2024-02-04T07:47:18;3.67;;;2.50;;
63444;SDS011;49573;47.682;9.170;2024-02-04T07:50:07;4.88;;;3.08;;
63444;SDS011;49573;47.682;9.170;2024-02-04T07:55:39;8.45;;;3.58;;
63444;SDS011;49573;47.682;9.170;2024-02-04T07:58:27;5.70;;;2.78;;
63444;SDS011;49573;47.682;9.170;2024-02-04T08:01:13;6.75;;;3.33;;
63444;SDS011;49573;47.682;9.170;2024-02-04T08:03:59;5.93;;;3.45;;
63444;SDS011;49573;47.682;9.170;2024-02-04T08:06:45;4.88;;;3.20;;
63444;SDS011;49573;47.682;9.170;2024-02-04T08:09:31;6.03;;;2.90;;
63444;SDS011;49573;47.682;9.170;2024-02-04T08:12:17;4.60;;;3.03;;
63444;SDS011;49573;47.682;9.170;2024-02-04T08:15:05;4.63;;;2.90;;
63444;SDS011;49573;47.682;9.170;2024-02-04T08:17:52;4.22;;;2.63;;
63444;SDS011;49573;47.682;9.170;2024-02-04T08:20:38;3.75;;;2.47;;
63444;SDS011;49573;47.682;9.170;2024-02-04T08:23:24;4.18;;;2.50;;
63444;SDS011;49573;47.682;9.170;2024-02-04T08:26:10;4.35;;;2.50;;
63444;SDS011;49573;47.682;9.170;2024-02-04T08:28:56;4.10;;;2.17;;
63444;SDS011;49573;47.682;9.170;2024-02-04T08:31:43;4.15;;;2.17;;
63444;SDS011;49573;47.682;9.170;2024-02-04T08:34:30;3.95;;;2.40;;
63444;SDS011;49573;47.682;9.170;2024-02-04T08:37:16;3.38;;;2.28;;
63444;SDS011;49573;47.682;9.170;2024-02-04T08:40:02;3.35;;;2.20;;
63444;SDS011;49573;47.682;9.170;2024-02-04T08:42:48;3.40;;;2.10;;
63444;SDS011;49573;47.682;9.170;2024-02-04T08:45:34;3.45;;;2.15;;
63444;SDS011;49573;47.682;9.170;2024-02-04T08:48:22;4.00;;;2.50;;
63444;SDS011;49573;47.682;9.170;2024-02-04T08:51:10;5.05;;;2.90;;
63444;SDS011;49573;47.682;9.170;2024-02-04T08:53:56;4.15;;;3.10;;
63444;SDS011;49573;47.682;9.170;2024-02-04T08:56:42;6.03;;;3.47;;
63444;SDS011;49573;47.682;9.170;2024-02-04T08:59:28;5.32;;;3.45;;
63444;SDS011;49573;47.682;9.170;2024-02-04T09:02:14;5.03;;;3.25;;
63444;SDS011;49573;47.682;9.170;2024-02-04T09:05:02;7.43;;;2.58;;
63444;SDS011;49573;47.682;9.170;2024-02-04T09:07:48;5.43;;;3.50;;
63444;SDS011;49573;47.682;9.170;2024-02-04T09:10:34;5.85;;;4.03;;
63444;SDS011;49573;47.682;9.170;2024-02-04T09:13:20;6.63;;;3.60;;
63444;SDS011;49573;47.682;9.170;2024-02-04T09:16:06;6.63;;;4.20;;
63444;SDS011;49573;47.682;9.170;2024-02-04T09:18:52;6.03;;;4.00;;
63444;SDS011;49573;47.682;9.170;2024-02-04T09:21:40;5.95;;;3.75;;
63444;SDS011;49573;47.682;9.170;2024-02-04T09:24:26;6.22;;;4.10;;
63444;SDS011;49573;47.682;9.170;2024-02-04T09:27:12;7.47;;;4.35;;
63444;SDS011;49573;47.682;9.170;2024-02-04T09:29:58;5.78;;;3.80;;
63444;SDS011;49573;47.682;9.170;2024-02-04T09:32:44;6.50;;;3.97;;
63444;SDS011;49573;47.682;9.170;2024-02-04T09:35:30;5.43;;;3.40;;
63444;SDS011;49573;47.682;9.170;2024-02-04T09:38:17;6.05;;;3.83;;
63444;SDS011;49573;47.682;9.170;2024-02-04T09:41:03;5.18;;;3.50;;
63444;SDS011;49573;47.682;9.170;2024-02-04T09:43:49;5.63;;;3.40;;
63444;SDS011;49573;47.682;9.170;2024-02-04T09:46:36;4.60;;;2.42;;
63444;SDS011;49573;47.682;9.170;2024-02-04T09:49:22;4.85;;;2.55;;
63444;SDS011;49573;47.682;9.170;2024-02-04T09:52:09;4.33;;;2.37;;
63444;SDS011;49573;47.682;9.170;2024-02-04T09:54:56;4.03;;;2.60;;
63444;SDS011;49573;47.682;9.170;2024-02-04T09:57:46;4.88;;;2.63;;
63444;SDS011;49573;47.682;9.170;2024-02-04T10:00:32;4.07;;;2.47;;
63444;SDS011;49573;47.682;9.170;2024-02-04T10:03:18;4.28;;;2.63;;
63444;SDS011;49573;47.682;9.170;2024-02-04T10:06:06;4.95;;;2.90;;
63444;SDS011;49573;47.682;9.170;2024-02-04T10:08:52;5.10;;;3.20;;
63444;SDS011;49573;47.682;9.170;2024-02-04T10:11:40;7.15;;;3.58;;
63444;SDS011;49573;47.682;9.170;2024-02-04T10:14:26;7.93;;;3.95;;
63444;SDS011;49573;47.682;9.170;2024-02-04T10:17:13;6.22;;;4.25;;
63444;SDS011;49573;47.682;9.170;2024-02-04T10:20:00;7.30;;;4.63;;
63444;SDS011;49573;47.682;9.170;2024-02-04T10:22:47;5.50;;;3.50;;
63444;SDS011;49573;47.682;9.170;2024-02-04T10:28:22;8.65;;;4.28;;
63444;SDS011;49573;47.682;9.170;2024-02-04T10:31:08;6.57;;;4.18;;
63444;SDS011;49573;47.682;9.170;2024-02-04T10:33:58;7.22;;;3.92;;
63444;SDS011;49573;47.682;9.170;2024-02-04T10:36:46;5.40;;;3.63;;
63444;SDS011;49573;47.682;9.170;2024-02-04T10:39:32;6.68;;;4.03;;
63444;SDS011;49573;47.682;9.170;2024-02-04T10:42:19;5.55;;;3.70;;
63444;SDS011;49573;47.682;9.170;2024-02-04T10:45:11;7.22;;;4.20;;
63444;SDS011;49573;47.682;9.170;2024-02-04T10:48:02;7.50;;;4.10;;
63444;SDS011;49573;47.682;9.170;2024-02-04T10:50:51;5.78;;;3.72;;
63444;SDS011;49573;47.682;9.170;2024-02-04T10:53:41;6.68;;;4.07;;
63444;SDS011;49573;47.682;9.170;2024-02-04T10:56:33;5.93;;;3.53;;
63444;SDS011;49573;47.682;9.170;2024-02-04T10:59:22;4.90;;;3.15;;
63444;SDS011;49573;47.682;9.170;2024-02-04T11:02:10;6.32;;;3.80;;
63444;SDS011;49573;47.682;9.170;2024-02-04T11:04:57;5.38;;;3.30;;
63444;SDS011;49573;47.682;9.170;2024-02-04T11:07:43;6.28;;;2.72;;
63444;SDS011;49573;47.682;9.170;2024-02-04T11:10:31;4.40;;;2.72;;
63444;SDS011;49573;47.682;9.170;2024-02-04T11:13:17;4.18;;;2.60;;
63444;SDS011;49573;47.682;9.170;2024-02-04T11:16:06;4.72;;;2.53;;
63444;SDS011;49573;47.682;9.170;2024-02-04T11:19:01;3.40;;;2.30;;
63444;SDS011;49573;47.682;9.170;2024-02-04T11:22:02;3.53;;;2.25;;
63444;SDS011;49573;47.682;9.170;2024-02-04T11:25:13;5.32;;;2.58;;
63444;SDS011;49573;47.682;9.170;2024-02-04T11:28:15;4.13;;;2.40;;
63444;SDS011;49573;47.682;9.170;2024-02-04T11:31:01;3.95;;;2.45;;
63444;SDS011;49573;47.682;9.170;2024-02-04T11:33:50;2.73;;;1.93;;
63444;SDS011;49573;47.682;9.170;2024-02-04T11:36:38;5.70;;;2.75;;
63444;SDS011;49573;47.682;9.170;2024-02-04T11:39:28;5.10;;;2.40;;
63444;SDS011;49573;47.682;9.170;2024-02-04T11:42:14;4.25;;;2.08;;
63444;SDS011;49573;47.682;9.170;2024-02-04T11:45:07;3.40;;;2.35;;
63444;SDS011;49573;47.682;9.170;2024-02-04T11:47:59;5.75;;;2.40;;
63444;SDS011;49573;47.682;9.170;2024-02-04T11:50:51;3.15;;;2.20;;
63444;SDS011;49573;47.682;9.170;2024-02-04T11:53:39;3.47;;;1.80;;
63444;SDS011;49573;47.682;9.170;2024-02-04T11:56:26;3.35;;;2.08;;
63444;SDS011;49573;47.682;9.170;2024-02-04T11:59:12;3.97;;;1.83;;
63444;SDS011;49573;47.682;9.170;2024-02-04T12:02:04;3.05;;;2.10;;
63444;SDS011;49573;47.682;9.170;2024-02-04T12:04:51;3.65;;;2.35;;
63444;SDS011;49573;47.682;9.170;2024-02-04T12:07:38;2.63;;;1.60;;
63444;SDS011;49573;47.682;9.170;2024-02-04T12:10:26;3.22;;;1.65;;
63444;SDS011;49573;47.682;9.170;2024-02-04T12:13:13;2.53;;;1.55;;
63444;SDS011;49573;47.682;9.170;2024-02-04T12:15:59;3.60;;;1.75;;
63444;SDS011;49573;47.682;9.170;2024-02-04T12:18:48;3.65;;;1.80;;
63444;SDS011;49573;47.682;9.170;2024-02-04T12:21:35;2.85;;;2.40;;
63444;SDS011;49573;47.682;9.170;2024-02-04T12:24:21;4.22;;;3.28;;
63444;SDS011;49573;47.682;9.170;2024-02-04T12:27:09;3.80;;;3.40;;
63444;SDS011;49573;47.682;9.170;2024-02-04T12:29:55;4.78;;;3.88;;
63444;SDS011;49573;47.682;9.170;2024-02-04T12:32:42;4.70;;;4.20;;
63444;SDS011;49573;47.682;9.170;2024-02-04T12:35:28;4.72;;;4.32;;
63444;SDS011;49573;47.682;9.170;2024-02-04T12:38:15;4.90;;;4.20;;
63444;SDS011;49573;47.682;9.170;2024-02-04T12:41:03;5.28;;;4.78;;
63444;SDS011;49573;47.682;9.170;2024-02-04T12:43:51;3.55;;;3.25;;
63444;SDS011;49573;47.682;9.170;2024-02-04T12:46:38;4.25;;;3.90;;
63444;SDS011;49573;47.682;9.170;2024-02-04T12:49:24;6.07;;;5.32;;
63444;SDS011;49573;47.682;9.170;2024-02-04T12:52:11;4.55;;;4.07;;
63444;SDS011;49573;47.682;9.170;2024-02-04T12:54:57;5.57;;;5.07;;
63444;SDS011;49573;47.682;9.170;2024-02-04T12:57:43;5.90;;;3.25;;
63444;SDS011;49573;47.682;9.170;2024-02-04T13:00:30;6.00;;;3.60;;
63444;SDS011;49573;47.682;9.170;2024-02-04T13:03:17;4.30;;;3.90;;
63444;SDS011;49573;47.682;9.170;2024-02-04T13:06:04;5.90;;;5.30;;
63444;SDS011;49573;47.682;9.170;2024-02-04T13:08:53;5.90;;;4.07;;
63444;SDS011;49573;47.682;9.170;2024-02-04T13:11:42;4.32;;;3.00;;
63444;SDS011;49573;47.682;9.170;2024-02-04T13:14:29;6.40;;;3.03;;
63444;SDS011;49573;47.682;9.170;2024-02-04T13:17:16;5.28;;;3.85;;
63444;SDS011;49573;47.682;9.170;2024-02-04T13:20:02;3.75;;;2.15;;
63444;SDS011;49573;47.682;9.170;2024-02-04T13:25:35;3.05;;;2.00;;
63444;SDS011;49573;47.682;9.170;2024-02-04T13:28:21;4.43;;;1.97;;
63444;SDS011;49573;47.682;9.170;2024-02-04T13:31:08;3.53;;;2.20;;
63444;SDS011;49573;47.682;9.170;2024-02-04T13:33:55;3.63;;;2.20;;
63444;SDS011;49573;47.682;9.170;2024-02-04T13:36:42;5.63;;;2.20;;
63444;SDS011;49573;47.682;9.170;2024-02-04T13:39:28;2.90;;;2.08;;
63444;SDS011;49573;47.682;9.170;2024-02-04T13:42:14;2.63;;;1.92;;
63444;SDS011;49573;47.682;9.170;2024-02-04T13:45:00;5.73;;;4.00;;
63444;SDS011;49573;47.682;9.170;2024-02-04T13:47:48;5.13;;;2.70;;
63444;SDS011;49573;47.682;9.170;2024-02-04T13:50:35;4.18;;;2.22;;
63444;SDS011;49573;47.682;9.170;2024-02-04T13:53:22;5.38;;;3.22;;
63444;SDS011;49573;47.682;9.170;2024-02-04T13:56:08;3.03;;;2.20;;
63444;SDS011;49573;47.682;9.170;2024-02-04T13:58:54;4.07;;;2.30;;
63444;SDS011;49573;47.682;9.170;2024-02-04T14:01:42;3.70;;;2.05;;
63444;SDS011;49573;47.682;9.170;2024-02-04T14:04:29;4.47;;;2.78;;
63444;SDS011;49573;47.682;9.170;2024-02-04T14:07:16;9.05;;;5.20;;
63444;SDS011;49573;47.682;9.170;2024-02-04T14:10:03;5.03;;;2.25;;
63444;SDS011;49573;47.682;9.170;2024-02-04T14:12:49;5.53;;;3.28;;
63444;SDS011;49573;47.682;9.170;2024-02-04T14:15:35;4.63;;;2.72;;
63444;SDS011;49573;47.682;9.170;2024-02-04T14:18:21;6.05;;;2.60;;
63444;SDS011;49573;47.682;9.170;2024-02-04T14:21:07;7.03;;;2.60;;
63444;SDS011;49573;47.682;9.170;2024-02-04T14:23:56;5.45;;;2.75;;
63444;SDS011;49573;47.682;9.170;2024-02-04T14:26:42;5.88;;;2.65;;
63444;SDS011;49573;47.682;9.170;2024-02-04T14:29:29;4.78;;;2.50;;
63444;SDS011;49573;47.682;9.170;2024-02-04T14:32:15;8.02;;;3.50;;
63444;SDS011;49573;47.682;9.170;2024-02-04T14:35:01;5.70;;;2.72;;
63444;SDS011;49573;47.682;9.170;2024-02-04T14:37:49;5.00;;;3.00;;
63444;SDS011;49573;47.682;9.170;2024-02-04T14:40:37;5.68;;;2.60;;
63444;SDS011;49573;47.682;9.170;2024-02-04T14:43:23;4.70;;;2.30;;
63444;SDS011;49573;47.682;9.170;2024-02-04T14:46:09;6.57;;;3.38;;
63444;SDS011;49573;47.682;9.170;2024-02-04T14:48:55;4.93;;;2.40;;
63444;SDS011;49573;47.682;9.170;2024-02-04T14:51:41;4.65;;;2.58;;
63444;SDS011;49573;47.682;9.170;2024-02-04T14:54:27;8.57;;;4.18;;
63444;SDS011;49573;47.682;9.170;2024-02-04T14:57:15;8.87;;;4.13;;
63444;SDS011;49573;47.682;9.170;2024-02-04T15:00:01;6.47;;;3.40;;
63444;SDS011;49573;47.682;9.170;2024-02-04T15:02:47;7.22;;;3.65;;
63444;SDS011;49573;47.682;9.170;2024-02-04T15:05:33;5.20;;;2.20;;
63444;SDS011;49573;47.682;9.170;2024-02-04T15:08:19;7.60;;;3.03;;
63444;SDS011;49573;47.682;9.170;2024-02-04T15:11:05;4.10;;;2.50;;
63444;SDS011;49573;47.682;9.170;2024-02-04T15:13:53;7.72;;;2.50;;
63444;SDS011;49573;47.682;9.170;2024-02-04T15:16:39;6.70;;;2.72;;
63444;SDS011;49573;47.682;9.170;2024-02-04T15:19:26;5.00;;;2.58;;
63444;SDS011;49573;47.682;9.170;2024-02-04T15:22:12;8.55;;;3.25;;
63444;SDS011;49573;47.682;9.170;2024-02-04T15:24:59;6.15;;;2.70;;
63444;SDS011;49573;47.682;9.170;2024-02-04T15:27:46;8.18;;;2.97;;
63444;SDS011;49573;47.682;9.170;2024-02-04T15:30:35;4.68;;;2.72;;
63444;SDS011;49573;47.682;9.170;2024-02-04T15:33:21;5.20;;;2.60;;
63444;SDS011;49573;47.682;9.170;2024-02-04T15:36:08;6.57;;;2.70;;
63444;SDS011;49573;47.682;9.170;2024-02-04T15:38:54;6.93;;;2.97;;
63444;SDS011;49573;47.682;9.170;2024-02-04T15:41:40;9.13;;;2.90;;
63444;SDS011;49573;47.682;9.170;2024-02-04T15:44:26;7.70;;;2.73;;
63444;SDS011;49573;47.682;9.170;2024-02-04T15:47:13;7.60;;;2.55;;
63444;SDS011;49573;47.682;9.170;2024-02-04T15:50:01;9.32;;;2.85;;
63444;SDS011;49573;47.682;9.170;2024-02-04T15:52:49;7.78;;;2.42;;
63444;SDS011;49573;47.682;9.170;2024-02-04T15:55:36;7.45;;;2.50;;
63444;SDS011;49573;47.682;9.170;2024-02-04T15:58:22;8.77;;;2.80;;
63444;SDS011;49573;47.682;9.170;2024-02-04T16:01:11;6.07;;;2.70;;
63444;SDS011;49573;47.682;9.170;2024-02-04T16:04:04;10.90;;;2.60;;
63444;SDS011;49573;47.682;9.170;2024-02-04T16:06:51;4.43;;;2.20;;
63444;SDS011;49573;47.682;9.170;2024-02-04T16:09:37;6.82;;;3.17;;
63444;SDS011;49573;47.682;9.170;2024-02-04T16:12:26;6.75;;;2.30;;
63444;SDS011;49573;47.682;9.170;2024-02-04T16:15:12;4.70;;;2.05;;
63444;SDS011;49573;47.682;9.170;2024-02-04T16:18:01;13.07;;;5.43;;
63444;SDS011;49573;47.682;9.170;2024-02-04T16:20:49;10.55;;;3.40;;
63444;SDS011;49573;47.682;9.170;2024-02-04T16:23:35;5.75;;;2.65;;
63444;SDS011;49573;47.682;9.170;2024-02-04T16:26:21;5.53;;;2.90;;
63444;SDS011;49573;47.682;9.170;2024-02-04T16:29:07;7.07;;;3.90;;
63444;SDS011;49573;47.682;9.170;2024-02-04T16:31:53;7.22;;;4.07;;
63444;SDS011;49573;47.682;9.170;2024-02-04T16:34:40;5.30;;;3.00;;
63444;SDS011;49573;47.682;9.170;2024-02-04T16:37:28;5.10;;;3.28;;
63444;SDS011;49573;47.682;9.170;2024-02-04T16:40:14;6.05;;;2.42;;
63444;SDS011;49573;47.682;9.170;2024-02-04T16:43:00;6.05;;;2.90;;
63444;SDS011;49573;47.682;9.170;2024-02-04T16:45:46;8.82;;;3.10;;
63444;SDS011;49573;47.682;9.170;2024-02-04T16:48:32;8.70;;;4.20;;
63444;SDS011;49573;47.682;9.170;2024-02-04T16:51:18;6.60;;;4.38;;
63444;SDS011;49573;47.682;9.170;2024-02-04T16:54:05;8.60;;;4.25;;
63444;SDS011;49573;47.682;9.170;2024-02-04T16:56:51;10.38;;;4.63;;